createdAt,value
2022-12-31T00:00:22.262Z,12.50
2022-12-31T00:05:24.517Z,15.30
2022-12-31T00:10:26.705Z,20.45
2022-12-31T00:15:29.122Z,17.97
2022-12-31T00:20:31.621Z,15.48
2022-12-31T00:25:36.470Z,14.75
2022-12-31T00:30:39.064Z,14.60
2022-12-31T00:35:41.232Z,14.57
2022-12-31T00:40:43.398Z,13.77
2022-12-31T00:45:45.552Z,14.52
2022-12-31T00:50:47.921Z,13.90
2022-12-31T00:55:50.571Z,14.33
2022-12-31T01:00:52.778Z,13.70
2022-12-31T01:05:59.493Z,14.97
2022-12-31T01:11:21.310Z,14.40
2022-12-31T01:16:26.790Z,13.00
2022-12-31T01:21:29.811Z,11.30
2022-12-31T01:26:32.479Z,11.85
2022-12-31T01:31:36.046Z,10.93
2022-12-31T01:36:38.738Z,10.30
2022-12-31T01:41:44.940Z,10.10
2022-12-31T01:46:55.873Z,9.93
2022-12-31T01:52:04.676Z,10.60
2022-12-31T01:57:08.244Z,10.83
2022-12-31T02:02:11.336Z,11.02
2022-12-31T02:07:13.634Z,10.93
2022-12-31T02:12:15.973Z,10.43
2022-12-31T02:17:58.560Z,11.70
2022-12-31T02:23:03.593Z,11.10
2022-12-31T02:28:14.771Z,11.75
2022-12-31T02:33:26.897Z,12.00
2022-12-31T02:38:33.272Z,10.93
2022-12-31T02:43:35.483Z,12.88
2022-12-31T02:48:41.229Z,12.10
2022-12-31T02:54:14.362Z,12.45
2022-12-31T02:59:45.316Z,12.65
2022-12-31T03:04:56.348Z,14.57
2022-12-31T03:09:59.945Z,14.32
2022-12-31T03:15:02.176Z,13.00
2022-12-31T03:20:23.791Z,14.23
2022-12-31T03:25:41.185Z,12.82
2022-12-31T03:30:46.472Z,13.00
2022-12-31T03:35:50.735Z,13.38
2022-12-31T03:40:54.674Z,13.63
2022-12-31T03:45:59.808Z,13.25
2022-12-31T03:51:02.115Z,14.35
2022-12-31T03:56:04.582Z,13.43
2022-12-31T04:01:07.347Z,14.38
2022-12-31T04:06:09.579Z,14.63
2022-12-31T04:11:17.345Z,14.10
2022-12-31T04:16:22.763Z,14.77
2022-12-31T04:21:26.847Z,14.20
2022-12-31T04:26:32.380Z,13.38
2022-12-31T04:31:34.636Z,12.83
2022-12-31T04:36:36.900Z,14.52
2022-12-31T04:41:39.085Z,14.25
2022-12-31T04:46:41.325Z,14.13
2022-12-31T04:51:43.484Z,15.07
2022-12-31T04:56:45.739Z,15.00
2022-12-31T05:01:48.088Z,14.18
2022-12-31T05:06:50.371Z,15.95
2022-12-31T05:11:52.563Z,15.17
2022-12-31T05:16:54.850Z,16.48
2022-12-31T05:22:15.744Z,15.90
2022-12-31T05:27:18.001Z,16.85
2022-12-31T05:32:20.182Z,16.20
2022-12-31T05:37:22.510Z,16.07
2022-12-31T05:42:25.156Z,16.45
2022-12-31T05:47:28.893Z,15.53
2022-12-31T05:52:31.058Z,15.87
2022-12-31T05:57:33.378Z,15.52
2022-12-31T06:02:36.056Z,15.03
2022-12-31T06:07:38.247Z,15.70
2022-12-31T06:12:40.579Z,15.10
2022-12-31T06:17:42.712Z,16.15
2022-12-31T06:22:45.087Z,16.10
2022-12-31T06:27:47.285Z,15.07
2022-12-31T06:32:49.481Z,15.45
2022-12-31T06:37:52.255Z,14.97
2022-12-31T06:42:59.650Z,15.48
2022-12-31T06:48:02.190Z,15.55
2022-12-31T06:53:04.516Z,14.90
2022-12-31T06:58:07.016Z,15.20
2022-12-31T07:03:18.940Z,14.17
2022-12-31T07:08:52.201Z,15.63
2022-12-31T07:14:32.178Z,15.57
2022-12-31T07:19:57.676Z,16.77
2022-12-31T07:25:00.582Z,17.52
2022-12-31T07:30:02.760Z,17.67
2022-12-31T07:35:34.784Z,16.37
2022-12-31T07:40:46.140Z,16.00
2022-12-31T07:45:58.402Z,16.83
2022-12-31T07:51:00.893Z,17.02
2022-12-31T07:56:08.655Z,17.07
2022-12-31T08:01:19.964Z,16.80
2022-12-31T08:06:53.219Z,16.20
2022-12-31T08:12:01.248Z,16.03
2022-12-31T08:17:03.731Z,15.85
2022-12-31T08:22:31.218Z,15.40
2022-12-31T08:28:05.895Z,16.20
2022-12-31T08:33:07.995Z,15.98
2022-12-31T08:38:25.222Z,17.50
2022-12-31T08:43:52.587Z,18.02
2022-12-31T08:48:55.042Z,16.93
2022-12-31T08:53:57.510Z,17.87
2022-12-31T08:59:04.648Z,18.35
2022-12-31T09:04:20.634Z,18.07
2022-12-31T09:09:45.596Z,17.48
2022-12-31T09:14:55.238Z,16.60
2022-12-31T09:19:58.082Z,19.35
2022-12-31T09:25:00.715Z,18.15
2022-12-31T09:30:11.051Z,17.30
2022-12-31T09:35:37.225Z,16.48
2022-12-31T09:40:39.659Z,17.00
2022-12-31T09:46:26.567Z,19.83
2022-12-31T09:51:32.279Z,20.02
2022-12-31T09:56:47.729Z,19.70
2022-12-31T10:01:59.698Z,19.92
2022-12-31T10:07:25.255Z,19.97
2022-12-31T10:12:55.361Z,19.50
2022-12-31T10:18:25.414Z,20.42
2022-12-31T10:23:30.659Z,19.87
2022-12-31T10:28:58.679Z,20.73
2022-12-31T10:34:32.604Z,19.77
2022-12-31T10:39:48.491Z,19.30
2022-12-31T10:45:15.332Z,17.37
2022-12-31T10:50:29.564Z,19.60
2022-12-31T10:56:00.756Z,19.25
2022-12-31T11:01:34.604Z,20.60
2022-12-31T11:07:01.671Z,19.95
2022-12-31T11:12:22.513Z,18.80
2022-12-31T11:17:47.911Z,21.43
2022-12-31T11:23:15.524Z,21.40
2022-12-31T11:28:39.021Z,24.60
2022-12-31T11:34:05.371Z,22.05
2022-12-31T11:39:32.098Z,21.58
2022-12-31T11:44:53.743Z,21.87
2022-12-31T11:50:01.997Z,23.45
2022-12-31T11:55:26.467Z,22.33
2022-12-31T12:00:31.148Z,22.77
2022-12-31T12:05:34.994Z,23.67
2022-12-31T12:10:47.784Z,23.40
2022-12-31T12:15:59.622Z,22.27
2022-12-31T12:21:06.612Z,23.40
2022-12-31T12:26:29.405Z,20.88
2022-12-31T12:31:34.282Z,23.12
2022-12-31T12:36:47.108Z,22.60
2022-12-31T12:42:06.508Z,22.85
2022-12-31T12:47:18.429Z,23.00
2022-12-31T12:52:59.697Z,23.60
2022-12-31T12:58:22.036Z,23.30
2022-12-31T13:03:59.996Z,25.20
2022-12-31T13:09:21.640Z,25.75
2022-12-31T13:14:36.889Z,26.73
2022-12-31T13:19:53.088Z,28.05
2022-12-31T13:25:24.510Z,27.50
2022-12-31T13:30:33.532Z,27.30
2022-12-31T13:35:55.234Z,25.62
2022-12-31T13:40:57.330Z,25.10
2022-12-31T13:46:08.351Z,25.37
2022-12-31T13:51:45.843Z,23.98
2022-12-31T13:56:50.245Z,23.97
2022-12-31T14:02:18.138Z,25.48
2022-12-31T14:07:35.363Z,23.40
2022-12-31T14:13:00.499Z,22.77
2022-12-31T14:18:03.152Z,22.90
2022-12-31T14:23:26.983Z,23.97
2022-12-31T14:29:12.369Z,23.98
2022-12-31T14:34:35.929Z,22.87
2022-12-31T14:40:09.159Z,23.58
2022-12-31T14:45:21.109Z,22.15
2022-12-31T14:50:28.739Z,22.80
2022-12-31T14:55:40.881Z,20.70
2022-12-31T15:00:55.032Z,21.77
2022-12-31T15:06:37.989Z,20.35
2022-12-31T15:12:07.241Z,21.42
2022-12-31T15:17:29.666Z,21.10
2022-12-31T15:22:46.407Z,22.45
2022-12-31T15:27:49.161Z,21.73
2022-12-31T15:32:51.879Z,21.37
2022-12-31T15:38:36.958Z,22.05
2022-12-31T15:44:03.488Z,21.37
2022-12-31T15:49:23.226Z,21.33
2022-12-31T15:54:44.740Z,22.07
2022-12-31T15:59:47.605Z,21.77
2022-12-31T16:04:50.367Z,21.62
2022-12-31T16:09:55.247Z,22.10
2022-12-31T16:14:59.300Z,22.05
2022-12-31T16:20:20.819Z,22.33
2022-12-31T16:25:33.128Z,21.02
2022-12-31T16:30:38.851Z,23.12
2022-12-31T16:35:41.176Z,23.93
2022-12-31T16:41:17.601Z,25.35
2022-12-31T16:46:27.505Z,23.57
2022-12-31T16:51:32.634Z,23.20
2022-12-31T16:56:38.618Z,24.12
2022-12-31T17:01:42.620Z,25.07
2022-12-31T17:06:45.108Z,26.10
2022-12-31T17:11:54.121Z,29.73
2022-12-31T17:17:04.189Z,29.55
2022-12-31T17:22:13.226Z,33.72
2022-12-31T17:27:15.998Z,29.77
2022-12-31T17:32:18.095Z,88.30
2022-12-31T17:37:31.157Z,69.87
2022-12-31T17:42:37.064Z,56.53
2022-12-31T17:47:41.615Z,34.40
2022-12-31T17:52:43.951Z,42.97
2022-12-31T17:57:55.720Z,34.92
2022-12-31T18:02:57.922Z,32.13
2022-12-31T18:08:00.084Z,33.80
2022-12-31T18:13:10.487Z,51.30
2022-12-31T18:18:24.787Z,46.70
2022-12-31T18:23:36.646Z,38.40
2022-12-31T18:28:38.841Z,39.27
2022-12-31T18:33:41.075Z,39.20
2022-12-31T18:38:43.468Z,38.75
2022-12-31T18:43:46.153Z,41.03
2022-12-31T18:48:48.943Z,40.97
2022-12-31T18:53:51.107Z,37.57
2022-12-31T18:58:53.783Z,42.03
2022-12-31T19:03:58.573Z,45.17
2022-12-31T19:09:01.132Z,41.33
2022-12-31T19:14:03.796Z,41.45
2022-12-31T19:19:08.689Z,39.30
2022-12-31T19:24:15.218Z,40.17
2022-12-31T19:29:23.306Z,38.80
2022-12-31T19:34:26.923Z,41.40
2022-12-31T19:39:29.112Z,42.83
2022-12-31T19:44:31.418Z,41.23
2022-12-31T19:49:34.096Z,42.13
2022-12-31T19:54:36.287Z,46.03
2022-12-31T19:59:38.492Z,45.77
2022-12-31T20:04:43.327Z,46.53
2022-12-31T20:09:45.491Z,43.80
2022-12-31T20:14:54.292Z,42.72
2022-12-31T20:19:56.546Z,52.67
2022-12-31T20:24:58.901Z,55.27
2022-12-31T20:30:01.130Z,52.15
2022-12-31T20:35:04.038Z,51.90
2022-12-31T20:40:07.266Z,69.40
2022-12-31T20:45:10.979Z,61.58
2022-12-31T20:50:13.209Z,56.70
2022-12-31T20:55:16.888Z,53.45
2022-12-31T21:00:19.724Z,50.03
2022-12-31T21:05:22.059Z,49.47
2022-12-31T21:10:24.560Z,53.83
2022-12-31T21:15:26.891Z,50.43
2022-12-31T21:20:29.144Z,50.47
2022-12-31T21:25:31.367Z,47.80
2022-12-31T21:30:33.684Z,47.53
2022-12-31T21:35:51.686Z,48.08
2022-12-31T21:40:55.642Z,46.67
2022-12-31T21:46:07.740Z,46.50
2022-12-31T21:51:16.745Z,45.90
2022-12-31T21:56:21.273Z,44.38
2022-12-31T22:01:42.232Z,43.50
2022-12-31T22:06:44.451Z,60.13
2022-12-31T22:11:46.710Z,147.40
2022-12-31T22:16:48.903Z,102.13
2022-12-31T22:21:51.117Z,67.25
2022-12-31T22:26:55.704Z,56.50
2022-12-31T22:32:01.163Z,50.30
2022-12-31T22:37:20.345Z,48.65
2022-12-31T22:42:25.863Z,66.50
2022-12-31T22:47:28.079Z,92.00
2022-12-31T22:52:31.206Z,72.90
2022-12-31T22:57:33.451Z,63.90
2022-12-31T23:02:41.365Z,60.55
2022-12-31T23:07:44.103Z,81.60
2022-12-31T23:12:46.261Z,106.43
2022-12-31T23:18:06.826Z,107.65
2022-12-31T23:23:14.741Z,77.27
2022-12-31T23:28:20.617Z,76.82
2022-12-31T23:33:25.147Z,70.33
2022-12-31T23:38:27.367Z,71.05
2022-12-31T23:43:29.596Z,72.72
2022-12-31T23:48:31.859Z,72.43
2022-12-31T23:53:34.236Z,69.70
2022-12-31T23:58:36.426Z,65.73
